createdAt,value
2019-03-23T00:00:08.733Z,13.37
2019-03-23T00:02:37.394Z,15.45
2019-03-23T00:05:08.131Z,15.27
2019-03-23T00:07:36.796Z,20.87
2019-03-23T00:10:08.817Z,19.63
2019-03-23T00:12:37.653Z,21.70
2019-03-23T00:15:11.717Z,19.60
2019-03-23T00:17:40.384Z,19.40
2019-03-23T00:20:09.510Z,22.50
2019-03-23T00:22:38.318Z,20.97
2019-03-23T00:25:07.320Z,24.77
2019-03-23T00:27:35.958Z,26.20
2019-03-23T00:30:10.752Z,35.07
2019-03-23T00:32:39.351Z,38.00
2019-03-23T00:35:08.732Z,42.07
2019-03-23T00:37:37.444Z,28.27
2019-03-23T00:40:09.051Z,17.93
2019-03-23T00:42:37.786Z,24.17
2019-03-23T00:45:07.894Z,31.40
2019-03-23T00:47:36.558Z,29.40
2019-03-23T00:50:06.975Z,33.33
2019-03-23T00:52:35.510Z,19.83
2019-03-23T00:55:06.959Z,30.83
2019-03-23T00:57:35.658Z,27.90
2019-03-23T01:00:10.473Z,49.23
2019-03-23T01:02:41.611Z,48.30
2019-03-23T01:05:09.933Z,30.90
2019-03-23T01:07:38.662Z,32.90
2019-03-23T01:10:12.699Z,22.43
2019-03-23T01:12:41.254Z,15.73
2019-03-23T01:15:11.724Z,16.17
2019-03-23T01:17:40.646Z,16.30
2019-03-23T01:20:11.026Z,15.60
2019-03-23T01:22:39.824Z,16.07
2019-03-23T01:25:10.523Z,16.50
2019-03-23T01:27:39.121Z,13.90
2019-03-23T01:30:10.799Z,11.33
2019-03-23T01:32:39.316Z,11.30
2019-03-23T01:35:08.454Z,12.53
2019-03-23T01:37:37.151Z,12.03
2019-03-23T01:40:07.556Z,11.90
2019-03-23T01:42:36.245Z,10.10
2019-03-23T01:45:08.277Z,11.47
2019-03-23T01:47:36.934Z,11.50
2019-03-23T01:50:07.810Z,12.37
2019-03-23T01:52:36.525Z,13.23
2019-03-23T01:55:08.781Z,13.63
2019-03-23T01:57:37.511Z,11.57
2019-03-23T02:00:11.726Z,13.03
2019-03-23T02:02:40.359Z,11.60
2019-03-23T02:05:09.693Z,12.43
2019-03-23T02:07:38.351Z,12.20
2019-03-23T02:10:09.582Z,12.47
2019-03-23T02:12:38.243Z,12.17
2019-03-23T02:15:09.055Z,11.53
2019-03-23T02:17:37.665Z,12.57
2019-03-23T02:20:11.621Z,12.20
2019-03-23T02:22:40.487Z,10.93
2019-03-23T02:25:09.558Z,10.53
2019-03-23T02:27:38.151Z,9.80
2019-03-23T02:30:10.059Z,11.73
2019-03-23T02:32:38.700Z,11.25
2019-03-23T02:35:08.968Z,10.33
2019-03-23T02:37:37.705Z,10.17
2019-03-23T02:40:08.212Z,10.47
2019-03-23T02:42:36.803Z,10.47
2019-03-23T02:45:11.751Z,8.60
2019-03-23T02:47:40.593Z,7.87
2019-03-23T02:50:10.489Z,9.23
2019-03-23T02:52:39.030Z,8.13
2019-03-23T02:55:09.449Z,9.10
2019-03-23T02:57:38.138Z,8.47
2019-03-23T03:00:12.722Z,7.87
2019-03-23T03:02:41.360Z,7.43
2019-03-23T03:05:10.122Z,7.40
2019-03-23T03:07:42.354Z,7.30
2019-03-23T03:10:11.428Z,7.47
2019-03-23T03:12:40.280Z,8.80
2019-03-23T03:15:10.047Z,7.83
2019-03-23T03:17:38.866Z,8.50
2019-03-23T03:20:09.226Z,7.23
2019-03-23T03:22:37.782Z,7.70
2019-03-23T03:25:08.436Z,6.60
2019-03-23T03:27:37.282Z,7.57
2019-03-23T03:30:08.538Z,6.70
2019-03-23T03:32:37.153Z,6.23
2019-03-23T03:35:06.915Z,5.60
2019-03-23T03:37:35.836Z,5.47
2019-03-23T03:40:06.368Z,5.17
2019-03-23T03:42:35.292Z,5.13
2019-03-23T03:45:06.507Z,5.03
2019-03-23T03:47:35.353Z,4.90
2019-03-23T03:50:06.583Z,5.50
2019-03-23T03:52:35.485Z,6.13
2019-03-23T03:55:05.874Z,6.70
2019-03-23T03:57:34.443Z,12.03
2019-03-23T04:00:04.108Z,9.07
2019-03-23T04:02:32.693Z,8.83
2019-03-23T04:05:01.352Z,9.33
2019-03-23T04:07:29.915Z,6.73
2019-03-23T04:09:58.471Z,7.13
2019-03-23T04:12:27.046Z,7.20
2019-03-23T04:14:55.764Z,6.30
2019-03-23T04:17:24.379Z,5.33
2019-03-23T04:19:53.015Z,5.87
2019-03-23T04:22:21.619Z,5.40
2019-03-23T04:24:50.521Z,5.00
2019-03-23T04:27:19.110Z,5.23
2019-03-23T04:29:47.695Z,4.80
2019-03-23T04:32:16.571Z,4.40
2019-03-23T04:34:45.189Z,4.70
2019-03-23T04:37:13.774Z,4.53
2019-03-23T04:39:42.342Z,4.50
2019-03-23T04:42:10.904Z,4.47
2019-03-23T04:44:39.542Z,4.47
2019-03-23T04:47:08.161Z,3.90
2019-03-23T04:49:36.750Z,4.13
2019-03-23T04:52:05.458Z,4.47
2019-03-23T04:54:34.033Z,3.83
2019-03-23T04:57:02.665Z,4.60
2019-03-23T04:59:31.474Z,4.37
2019-03-23T05:02:00.004Z,4.90
2019-03-23T05:04:28.602Z,4.77
2019-03-23T05:06:57.173Z,3.90
2019-03-23T05:09:25.778Z,4.27
2019-03-23T05:11:54.372Z,3.83
2019-03-23T05:14:22.959Z,4.70
2019-03-23T05:16:51.550Z,4.00
2019-03-23T05:19:20.146Z,3.73
2019-03-23T05:21:48.757Z,4.33
2019-03-23T05:24:17.306Z,4.03
2019-03-23T05:26:45.939Z,5.10
2019-03-23T05:29:14.497Z,5.10
2019-03-23T05:31:43.225Z,4.90
2019-03-23T05:34:11.801Z,5.10
2019-03-23T05:36:40.393Z,4.60
2019-03-23T05:39:08.959Z,4.70
2019-03-23T05:41:37.619Z,4.33
2019-03-23T05:44:06.546Z,3.93
2019-03-23T05:46:35.112Z,3.43
2019-03-23T05:49:03.914Z,4.03
2019-03-23T05:51:32.907Z,4.10
2019-03-23T05:54:01.587Z,4.00
2019-03-23T05:56:30.151Z,3.57
2019-03-23T05:58:58.713Z,3.97
2019-03-23T06:01:27.315Z,3.53
2019-03-23T06:03:56.012Z,3.90
2019-03-23T06:06:24.549Z,4.50
2019-03-23T06:08:55.329Z,3.90
2019-03-23T06:11:23.369Z,3.40
2019-03-23T06:13:51.954Z,2.97
2019-03-23T06:16:20.626Z,3.30
2019-03-23T06:18:49.325Z,3.90
2019-03-23T06:21:17.982Z,2.47
2019-03-23T06:23:46.710Z,2.83
2019-03-23T06:26:15.257Z,3.07
2019-03-23T06:28:44.079Z,3.23
2019-03-23T06:31:12.697Z,3.50
2019-03-23T06:33:41.265Z,2.30
2019-03-23T06:36:09.923Z,2.83
2019-03-23T06:38:38.501Z,3.23
2019-03-23T06:41:07.185Z,2.97
2019-03-23T06:43:35.790Z,3.07
2019-03-23T06:46:04.411Z,2.50
2019-03-23T06:48:32.973Z,2.90
2019-03-23T06:51:03.276Z,2.63
2019-03-23T06:53:31.834Z,3.17
2019-03-23T06:56:00.390Z,2.50
2019-03-23T06:58:28.992Z,2.90
2019-03-23T07:00:57.749Z,3.07
2019-03-23T07:03:26.385Z,2.53
2019-03-23T07:05:54.958Z,1.80
2019-03-23T07:08:31.535Z,2.03
2019-03-23T07:10:53.877Z,2.10
2019-03-23T07:13:22.458Z,2.63
2019-03-23T07:15:51.098Z,2.13
2019-03-23T07:18:19.857Z,2.37
2019-03-23T07:20:48.428Z,2.27
2019-03-23T07:23:18.125Z,2.43
2019-03-23T07:25:46.928Z,2.03
2019-03-23T07:28:15.531Z,2.33
2019-03-23T07:30:44.094Z,2.07
2019-03-23T07:33:12.694Z,1.90
2019-03-23T07:35:41.467Z,1.93
2019-03-23T07:38:11.043Z,2.03
2019-03-23T07:40:39.630Z,2.13
2019-03-23T07:43:08.191Z,1.80
2019-03-23T07:45:36.972Z,1.70
2019-03-23T07:48:05.941Z,1.50
2019-03-23T07:50:34.601Z,1.73
2019-03-23T07:53:03.306Z,1.83
2019-03-23T07:55:31.911Z,6.43
2019-03-23T07:58:00.475Z,1.47
2019-03-23T08:00:29.110Z,2.00
2019-03-23T08:02:59.008Z,1.63
2019-03-23T08:05:27.659Z,1.90
2019-03-23T08:07:57.789Z,1.80
2019-03-23T08:10:33.333Z,2.10
2019-03-23T08:13:02.758Z,1.60
2019-03-23T08:15:31.588Z,2.43
2019-03-23T08:18:00.177Z,2.17
2019-03-23T08:20:28.805Z,2.67
2019-03-23T08:22:57.850Z,2.50
2019-03-23T08:25:26.478Z,2.20
2019-03-23T08:27:55.190Z,2.20
2019-03-23T08:30:23.811Z,2.40
2019-03-23T08:32:54.250Z,2.07
2019-03-23T08:35:22.762Z,2.23
2019-03-23T08:37:51.468Z,3.10
2019-03-23T08:40:20.129Z,1.83
2019-03-23T08:42:48.773Z,2.00
2019-03-23T08:45:17.498Z,2.50
2019-03-23T08:47:46.091Z,2.57
2019-03-23T08:50:15.006Z,2.17
2019-03-23T08:52:43.534Z,2.27
2019-03-23T08:55:12.187Z,2.03
2019-03-23T08:57:41.553Z,2.93
2019-03-23T09:00:11.582Z,1.97
2019-03-23T09:02:41.151Z,2.40
2019-03-23T09:05:10.028Z,1.87
2019-03-23T09:07:38.636Z,2.43
2019-03-23T09:10:08.235Z,2.13
2019-03-23T09:12:36.908Z,2.10
2019-03-23T11:14:13.577Z,6.12
2019-03-23T11:16:42.335Z,4.83
2019-03-23T11:19:13.564Z,4.55
2019-03-23T11:21:41.628Z,5.30
2019-03-23T11:24:10.868Z,5.12
2019-03-23T11:26:39.875Z,5.20
2019-03-23T11:29:08.618Z,5.40
2019-03-23T11:31:37.564Z,4.53
2019-03-23T11:34:06.213Z,5.45
2019-03-23T11:36:42.224Z,6.35
2019-03-23T11:39:10.837Z,6.60
2019-03-23T11:41:39.611Z,5.80
2019-03-23T11:44:08.630Z,5.78
2019-03-23T11:46:37.457Z,5.97
2019-03-23T11:49:06.581Z,7.05
2019-03-23T11:51:35.186Z,6.45
2019-03-23T11:54:04.602Z,6.33
2019-03-23T11:56:33.214Z,5.95
2019-03-23T11:59:01.834Z,5.80
2019-03-23T12:01:30.419Z,6.97
2019-03-23T12:03:59.232Z,6.85
2019-03-23T12:06:27.822Z,6.90
2019-03-23T12:08:57.575Z,7.80
2019-03-23T12:11:26.249Z,7.33
2019-03-23T12:13:54.855Z,8.45
2019-03-23T12:16:23.515Z,10.43
2019-03-23T12:18:52.112Z,11.78
2019-03-23T12:21:20.963Z,11.57
2019-03-23T12:23:49.739Z,11.28
2019-03-23T12:26:18.560Z,10.90
2019-03-23T12:28:47.133Z,10.10
2019-03-23T12:31:15.740Z,10.18
2019-03-23T12:33:44.424Z,10.63
2019-03-23T12:36:13.026Z,9.73
2019-03-23T12:38:41.856Z,11.22
2019-03-23T12:41:22.558Z,9.63
2019-03-23T12:43:40.850Z,10.55
2019-03-23T12:46:09.658Z,9.68
2019-03-23T12:48:39.013Z,9.63
2019-03-23T12:51:07.626Z,10.75
2019-03-23T12:53:36.212Z,10.85
2019-03-23T12:56:04.921Z,11.08
2019-03-23T12:58:33.585Z,11.10
2019-03-23T13:01:02.293Z,11.88
2019-03-23T13:03:30.982Z,15.05
2019-03-23T13:05:59.615Z,14.78
2019-03-23T13:08:28.310Z,16.95
2019-03-23T13:10:57.114Z,13.93
2019-03-23T13:13:25.841Z,14.65
2019-03-23T13:15:54.438Z,16.03
2019-03-23T13:18:27.111Z,15.50
2019-03-23T13:20:53.405Z,14.77
2019-03-23T13:23:22.421Z,14.35
2019-03-23T13:25:51.127Z,15.37
2019-03-23T13:28:19.787Z,14.37
2019-03-23T13:30:48.466Z,12.00
2019-03-23T13:33:17.097Z,12.80
2019-03-23T13:35:45.731Z,11.60
2019-03-23T13:38:14.435Z,13.40
2019-03-23T13:40:43.109Z,14.33
2019-03-23T13:43:11.721Z,13.13
2019-03-23T13:45:42.741Z,14.23
2019-03-23T13:48:11.115Z,12.57
2019-03-23T13:50:39.856Z,13.90
2019-03-23T13:53:08.785Z,12.23
2019-03-23T13:55:37.465Z,13.43
2019-03-23T13:58:08.704Z,12.80
2019-03-23T14:00:37.592Z,13.73
2019-03-23T14:03:07.615Z,15.17
2019-03-23T14:05:39.493Z,12.83
2019-03-23T14:08:08.173Z,14.97
2019-03-23T14:10:36.757Z,13.73
2019-03-23T14:13:05.532Z,14.73
2019-03-23T14:15:34.274Z,13.97
2019-03-23T14:18:02.877Z,16.37
2019-03-23T14:20:31.971Z,14.70
2019-03-23T14:23:02.961Z,15.07
2019-03-23T14:25:30.827Z,14.47
2019-03-23T14:27:59.767Z,14.87
2019-03-23T14:30:29.674Z,14.87
2019-03-23T14:32:58.322Z,14.90
2019-03-23T14:35:27.019Z,14.70
2019-03-23T14:37:55.633Z,15.13
2019-03-23T14:40:24.310Z,16.93
2019-03-23T14:42:53.199Z,17.30
2019-03-23T14:45:21.869Z,17.37
2019-03-23T14:47:50.639Z,15.00
2019-03-23T14:50:19.578Z,15.83
2019-03-23T14:52:48.227Z,15.43
2019-03-23T14:55:16.799Z,14.27
2019-03-23T14:57:45.422Z,15.00
2019-03-23T15:00:16.129Z,17.47
2019-03-23T15:02:44.899Z,15.03
2019-03-23T15:05:13.528Z,13.20
2019-03-23T15:07:42.214Z,13.47
2019-03-23T15:10:11.815Z,14.40
2019-03-23T15:12:40.443Z,13.50
2019-03-23T15:15:09.976Z,14.23
2019-03-23T15:17:48.233Z,14.03
2019-03-23T15:20:09.192Z,13.30
2019-03-23T15:22:37.782Z,13.03
2019-03-23T15:25:07.267Z,12.77
2019-03-23T15:27:35.926Z,15.33
2019-03-23T15:30:08.980Z,15.70
2019-03-23T15:32:37.608Z,14.17
2019-03-23T15:35:08.155Z,15.00
2019-03-23T15:37:37.152Z,16.37
2019-03-23T15:40:07.951Z,16.70
2019-03-23T15:42:36.638Z,15.70
2019-03-23T15:45:09.777Z,15.67
2019-03-23T15:47:39.527Z,15.07
2019-03-23T15:50:09.395Z,15.63
2019-03-23T15:52:41.174Z,15.60
2019-03-23T15:55:10.521Z,16.57
2019-03-23T15:57:39.229Z,15.57
2019-03-23T16:00:09.885Z,16.13
2019-03-23T16:02:38.706Z,15.97
2019-03-23T16:05:08.117Z,17.13
2019-03-23T16:07:41.327Z,17.33
2019-03-23T16:10:11.057Z,16.27
2019-03-23T16:12:39.799Z,16.40
2019-03-23T16:15:11.277Z,18.60
2019-03-23T16:17:40.018Z,17.03
2019-03-23T16:20:11.507Z,17.80
2019-03-23T16:22:40.439Z,17.10
2019-03-23T16:25:10.696Z,17.30
2019-03-23T16:27:41.220Z,17.03
2019-03-23T16:30:12.069Z,19.67
2019-03-23T16:32:40.807Z,17.73
2019-03-23T16:35:10.098Z,17.30
2019-03-23T16:37:39.371Z,18.93
2019-03-23T16:40:10.066Z,18.37
2019-03-23T16:42:45.226Z,19.40
2019-03-23T16:45:10.740Z,19.90
2019-03-23T16:47:39.433Z,19.70
2019-03-23T16:50:08.804Z,19.60
2019-03-23T16:52:38.607Z,19.63
2019-03-23T16:55:08.851Z,19.13
2019-03-23T16:57:37.573Z,20.17
2019-03-23T17:00:12.767Z,20.30
2019-03-23T17:02:41.694Z,19.47
2019-03-23T17:05:10.489Z,19.63
2019-03-23T17:07:39.291Z,20.83
2019-03-23T17:10:08.892Z,22.03
2019-03-23T17:12:37.524Z,21.90
2019-03-23T17:15:07.555Z,26.20
2019-03-23T17:17:36.649Z,23.83
2019-03-23T17:20:06.186Z,21.87
2019-03-23T17:22:35.116Z,22.77
2019-03-23T17:25:06.429Z,22.97
2019-03-23T17:27:35.055Z,21.87
2019-03-23T17:30:05.241Z,20.30
2019-03-23T17:32:33.822Z,22.47
2019-03-23T17:35:02.568Z,21.70
2019-03-23T17:37:31.215Z,20.47
2019-03-23T17:40:00.117Z,23.23
2019-03-23T17:42:28.936Z,23.00
2019-03-23T17:44:57.761Z,32.77
2019-03-23T17:47:29.669Z,19.27
2019-03-23T17:49:58.481Z,28.73
2019-03-23T17:52:27.251Z,20.67
2019-03-23T17:54:55.944Z,22.53
2019-03-23T17:57:24.597Z,21.47
2019-03-23T17:59:53.269Z,23.87
2019-03-23T18:02:22.096Z,22.07
2019-03-23T18:04:50.650Z,21.53
2019-03-23T18:07:19.506Z,19.93
2019-03-23T18:09:48.096Z,23.97
2019-03-23T18:12:16.847Z,22.33
2019-03-23T18:14:45.527Z,23.77
2019-03-23T18:17:14.279Z,22.20
2019-03-23T18:19:42.850Z,21.30
2019-03-23T18:22:11.470Z,21.90
2019-03-23T18:24:40.166Z,21.17
2019-03-23T18:27:08.914Z,21.43
2019-03-23T18:29:37.640Z,21.57
2019-03-23T18:32:06.378Z,21.63
2019-03-23T18:34:34.986Z,22.63
2019-03-23T18:37:03.851Z,21.70
2019-03-23T18:39:32.459Z,20.13
2019-03-23T18:42:01.184Z,20.20
2019-03-23T18:44:29.947Z,19.30
2019-03-23T18:46:58.518Z,21.30
2019-03-23T18:49:27.140Z,19.00
2019-03-23T18:51:57.542Z,18.60
2019-03-23T18:54:26.219Z,20.07
2019-03-23T18:56:54.794Z,19.33
2019-03-23T18:59:23.394Z,19.90
2019-03-23T19:01:51.992Z,21.43
2019-03-23T19:04:20.605Z,20.43
2019-03-23T19:06:49.217Z,27.10
2019-03-23T19:09:17.863Z,26.70
2019-03-23T19:11:46.661Z,22.90
2019-03-23T19:14:15.393Z,21.00
2019-03-23T19:16:44.097Z,17.93
2019-03-23T19:19:12.642Z,19.87
2019-03-23T19:21:41.237Z,17.80
2019-03-23T19:24:12.242Z,17.33
2019-03-23T19:26:40.453Z,23.00
2019-03-23T19:29:09.178Z,18.43
2019-03-23T19:31:39.531Z,21.43
2019-03-23T19:34:08.413Z,19.30
2019-03-23T19:36:37.030Z,24.33
2019-03-23T19:39:08.036Z,20.97
2019-03-23T19:41:36.786Z,17.70
2019-03-23T19:44:05.463Z,18.10
2019-03-23T19:46:34.094Z,17.27
2019-03-23T19:49:03.066Z,16.03
2019-03-23T19:51:31.959Z,17.57
2019-03-23T19:54:00.950Z,17.77
2019-03-23T19:56:29.634Z,22.03
2019-03-23T19:58:58.278Z,17.43
2019-03-23T20:01:27.082Z,18.07
2019-03-23T20:03:55.695Z,17.33
2019-03-23T20:06:24.377Z,17.73
2019-03-23T20:08:53.107Z,17.67
2019-03-23T20:11:22.174Z,17.63
2019-03-23T20:13:58.408Z,19.30
2019-03-23T20:16:21.279Z,19.50
2019-03-23T20:18:50.047Z,17.17
2019-03-23T20:21:18.928Z,18.97
2019-03-23T20:23:47.624Z,18.07
2019-03-23T20:26:16.327Z,19.50
2019-03-23T20:28:44.977Z,17.77
2019-03-23T20:31:13.769Z,18.37
2019-03-23T20:33:42.435Z,19.13
2019-03-23T20:36:11.232Z,17.67
2019-03-23T20:38:40.060Z,18.93
2019-03-23T20:41:08.683Z,18.93
2019-03-23T20:43:38.554Z,17.23
2019-03-23T20:46:07.809Z,17.90
2019-03-23T20:48:37.313Z,18.43
2019-03-23T20:51:06.047Z,18.70
2019-03-23T20:53:34.710Z,18.07
2019-03-23T20:56:03.505Z,17.90
2019-03-23T20:58:32.102Z,19.00
2019-03-23T21:01:00.704Z,17.73
2019-03-23T21:03:29.640Z,18.60
2019-03-23T21:05:58.242Z,19.13
2019-03-23T21:08:26.947Z,19.10
2019-03-23T21:10:55.690Z,16.40
2019-03-23T21:13:24.456Z,19.10
2019-03-23T21:15:53.009Z,33.20
2019-03-23T21:18:21.650Z,19.93
2019-03-23T21:20:50.361Z,17.97
2019-03-23T21:23:18.989Z,18.03
2019-03-23T21:25:47.640Z,17.77
2019-03-23T21:28:16.301Z,16.93
2019-03-23T21:30:44.998Z,17.67
2019-03-23T21:33:13.716Z,18.23
2019-03-23T21:35:42.484Z,18.10
2019-03-23T21:38:11.145Z,19.93
2019-03-23T21:40:39.711Z,18.63
2019-03-23T21:43:08.454Z,17.90
2019-03-23T21:45:37.099Z,18.77
2019-03-23T21:48:05.893Z,17.70
2019-03-23T21:50:34.488Z,17.10
2019-03-23T21:53:03.277Z,17.90
2019-03-23T21:55:31.916Z,17.50
2019-03-23T21:58:00.581Z,17.20
2019-03-23T22:00:34.539Z,18.40
2019-03-23T22:03:03.661Z,16.67
2019-03-23T22:05:32.539Z,16.20
2019-03-23T22:08:01.234Z,17.00
2019-03-23T22:10:30.214Z,17.00
2019-03-23T22:12:58.819Z,16.13
2019-03-23T22:15:29.162Z,14.53
2019-03-23T22:17:57.735Z,15.80
2019-03-23T22:20:26.484Z,15.57
2019-03-23T22:22:55.011Z,15.13
2019-03-23T22:25:23.662Z,14.00
2019-03-23T22:27:52.289Z,13.93
2019-03-23T22:30:21.032Z,13.60
2019-03-23T22:32:49.622Z,14.53
2019-03-23T22:35:18.255Z,14.90
2019-03-23T22:37:46.948Z,15.23
2019-03-23T22:40:15.954Z,16.10
2019-03-23T22:42:44.614Z,15.17
2019-03-23T22:45:13.627Z,13.17
2019-03-23T22:47:42.322Z,14.23
2019-03-23T22:50:11.768Z,14.23
2019-03-23T22:52:40.905Z,12.47
2019-03-23T22:55:09.838Z,12.73
2019-03-23T22:57:38.552Z,12.97
2019-03-23T23:00:16.943Z,13.50
2019-03-23T23:02:45.916Z,11.63
2019-03-23T23:05:15.382Z,12.10
2019-03-23T23:07:44.654Z,11.23
2019-03-23T23:10:13.853Z,11.73
2019-03-23T23:12:42.498Z,10.77
2019-03-23T23:15:11.651Z,10.93
2019-03-23T23:17:40.245Z,11.30
2019-03-23T23:20:09.230Z,12.00
2019-03-23T23:22:37.845Z,10.47
2019-03-23T23:25:07.292Z,11.70
2019-03-23T23:27:36.394Z,10.53
2019-03-23T23:30:07.606Z,10.17
2019-03-23T23:32:36.594Z,10.67
2019-03-23T23:35:07.714Z,9.80
2019-03-23T23:37:36.482Z,9.63
2019-03-23T23:40:07.481Z,9.97
2019-03-23T23:42:36.252Z,10.77
2019-03-23T23:45:15.323Z,11.07
2019-03-23T23:47:37.971Z,9.73
2019-03-23T23:50:07.555Z,9.37
2019-03-23T23:52:36.161Z,10.27
2019-03-23T23:55:06.362Z,9.00
2019-03-23T23:57:35.043Z,10.17
